createdAt,value
2022-12-06T00:01:14.595Z,100369.22
2022-12-06T00:03:45.504Z,100367.34
2022-12-06T00:06:19.219Z,100367.34
2022-12-06T00:08:49.769Z,100355.94
2022-12-06T00:11:20.150Z,100370.22
2022-12-06T00:13:49.072Z,100366.22
2022-12-06T00:16:18.500Z,100362.75
2022-12-06T00:18:48.515Z,100361.34
2022-12-06T00:21:23.139Z,100359.09
2022-12-06T00:23:55.139Z,100354.19
2022-12-06T00:26:25.601Z,100353.53
2022-12-06T00:28:54.406Z,100345.44
2022-12-06T00:31:24.499Z,100351.16
2022-12-06T00:33:52.984Z,100356.06
2022-12-06T00:36:22.819Z,100347.19
2022-12-06T00:38:52.737Z,100347.19
2022-12-06T00:41:22.159Z,100350.47
2022-12-06T00:43:51.105Z,100342.53
2022-12-06T00:46:21.316Z,100338.53
2022-12-06T00:48:50.537Z,100332.38
2022-12-06T00:51:20.003Z,100330.47
2022-12-06T00:53:48.757Z,100327.75
2022-12-06T00:56:19.417Z,100332.94
2022-12-06T00:58:47.764Z,100325.19
2022-12-06T01:01:18.128Z,100321.56
2022-12-06T01:03:47.076Z,100308.00
2022-12-06T01:06:17.097Z,100309.78
2022-12-06T01:08:46.075Z,100305.53
2022-12-06T01:11:16.415Z,100311.38
2022-12-06T01:13:45.882Z,100307.94
2022-12-06T01:16:16.047Z,100293.34
2022-12-06T01:18:45.419Z,100300.00
2022-12-06T01:21:16.070Z,100292.03
2022-12-06T01:23:44.792Z,100289.63
2022-12-06T01:26:17.531Z,100294.72
2022-12-06T01:28:47.464Z,100293.13
2022-12-06T01:31:16.501Z,100285.03
2022-12-06T01:33:45.413Z,100292.31
2022-12-06T01:36:18.223Z,100286.59
2022-12-06T01:38:50.832Z,100289.88
2022-12-06T01:41:19.335Z,100292.47
2022-12-06T01:43:49.356Z,100298.34
2022-12-06T01:46:29.405Z,100297.22
2022-12-06T01:49:04.054Z,100291.84
2022-12-06T01:51:32.175Z,100284.84
2022-12-06T01:54:03.099Z,100290.75
2022-12-06T01:56:31.681Z,100285.16
2022-12-06T01:59:01.515Z,100283.91
2022-12-06T02:01:32.705Z,100279.59
2022-12-06T02:04:02.348Z,100282.78
2022-12-06T02:06:32.250Z,100281.38
2022-12-06T02:09:03.485Z,100275.81
2022-12-06T02:11:35.227Z,100275.00
2022-12-06T02:14:08.490Z,100269.31
2022-12-06T02:16:56.412Z,100271.22
2022-12-06T02:19:45.400Z,100267.09
2022-12-06T02:22:20.898Z,100270.09
2022-12-06T02:25:25.114Z,100269.91
2022-12-06T02:28:12.173Z,100266.44
2022-12-06T02:30:48.482Z,100265.63
2022-12-06T02:33:23.577Z,100268.81
2022-12-06T02:35:59.524Z,100270.75
2022-12-06T02:38:36.190Z,100270.75
2022-12-06T02:41:10.322Z,100273.94
2022-12-06T02:43:42.370Z,100270.63
2022-12-06T02:46:14.781Z,100273.03
2022-12-06T02:48:44.880Z,100278.09
2022-12-06T02:51:17.230Z,100277.16
2022-12-06T02:53:49.005Z,100277.03
2022-12-06T02:56:18.668Z,100279.91
2022-12-06T02:58:48.738Z,100272.75
2022-12-06T03:01:21.712Z,100278.34
2022-12-06T03:04:12.059Z,100269.44
2022-12-06T03:07:11.297Z,100268.31
2022-12-06T03:09:52.280Z,100271.31
2022-12-06T03:12:31.754Z,100266.25
2022-12-06T03:15:10.477Z,100274.63
2022-12-06T03:17:45.868Z,100275.75
2022-12-06T03:20:19.308Z,100270.75
2022-12-06T03:22:51.030Z,100268.41
2022-12-06T03:25:19.668Z,100269.88
2022-12-06T03:27:50.186Z,100263.81
2022-12-06T03:30:18.764Z,100263.66
2022-12-06T03:32:51.291Z,100265.06
2022-12-06T03:35:25.644Z,100268.84
2022-12-06T03:37:59.322Z,100260.63
2022-12-06T03:40:29.962Z,100257.44
2022-12-06T03:42:58.672Z,100262.81
2022-12-06T03:45:32.520Z,100256.16
2022-12-06T03:48:06.622Z,100261.09
2022-12-06T03:50:39.388Z,100251.44
2022-12-06T03:53:07.773Z,100258.41
2022-12-06T03:55:35.888Z,100257.34
2022-12-06T03:58:04.130Z,100249.84
2022-12-06T04:00:32.343Z,100258.25
2022-12-06T04:03:01.770Z,100257.28
2022-12-06T04:05:29.909Z,100252.50
2022-12-06T04:07:58.019Z,100253.78
2022-12-06T04:10:26.191Z,100256.59
2022-12-06T04:13:03.250Z,100253.13
2022-12-06T04:15:33.046Z,100253.28
2022-12-06T04:18:10.920Z,100249.50
2022-12-06T04:21:01.725Z,100250.16
2022-12-06T04:23:30.956Z,100254.81
2022-12-06T04:25:59.077Z,100248.06
2022-12-06T04:28:44.770Z,100243.00
2022-12-06T04:31:30.341Z,100250.16
2022-12-06T04:34:17.531Z,100244.78
2022-12-06T04:37:04.301Z,100249.66
2022-12-06T04:39:32.454Z,100237.63
2022-12-06T04:42:20.288Z,100244.16
2022-12-06T04:44:48.854Z,100240.56
2022-12-06T04:47:17.105Z,100247.78
2022-12-06T04:49:46.641Z,100245.06
2022-12-06T04:52:14.858Z,100245.19
2022-12-06T04:54:44.842Z,100247.22
2022-12-06T04:57:15.770Z,100242.63
2022-12-06T04:59:46.241Z,100252.84
2022-12-06T05:02:16.317Z,100254.63
2022-12-06T05:04:44.458Z,100249.88
2022-12-06T05:07:14.153Z,100258.94
2022-12-06T05:09:42.302Z,100263.34
2022-12-06T05:12:10.589Z,100257.00
2022-12-06T05:14:39.184Z,100261.69
2022-12-06T05:17:07.393Z,100258.34
2022-12-06T05:19:35.540Z,100263.25
2022-12-06T05:22:03.692Z,100259.88
2022-12-06T05:24:33.615Z,100250.38
2022-12-06T05:27:01.657Z,100250.69
2022-12-06T05:29:29.777Z,100256.88
2022-12-06T05:31:57.983Z,100247.03
2022-12-06T05:34:26.280Z,100257.53
2022-12-06T05:36:54.383Z,100254.16
2022-12-06T05:39:22.525Z,100255.44
2022-12-06T05:41:52.066Z,100252.66
2022-12-06T05:44:20.502Z,100253.13
2022-12-06T05:46:48.691Z,100253.88
2022-12-06T05:49:16.745Z,100254.38
2022-12-06T05:51:44.790Z,100248.97
2022-12-06T05:54:13.016Z,100255.78
2022-12-06T05:56:41.178Z,100254.16
2022-12-06T05:59:10.680Z,100257.06
2022-12-06T06:01:38.986Z,100256.06
2022-12-06T06:04:07.097Z,100259.88
2022-12-06T06:06:35.231Z,100260.28
2022-12-06T06:09:03.301Z,100263.34
2022-12-06T06:11:31.422Z,100259.56
2022-12-06T06:13:59.505Z,100268.00
2022-12-06T06:16:29.127Z,100263.22
2022-12-06T06:18:57.332Z,100266.50
2022-12-06T06:21:25.494Z,100258.56
2022-12-06T06:23:53.763Z,100252.19
2022-12-06T06:26:22.085Z,100260.09
2022-12-06T06:28:50.796Z,100245.81
2022-12-06T06:31:19.154Z,100246.31
2022-12-06T06:33:49.025Z,100254.16
2022-12-06T06:36:17.258Z,100248.47
2022-12-06T06:38:45.393Z,100252.81
2022-12-06T06:41:13.557Z,100246.44
2022-12-06T06:43:41.909Z,100248.00
2022-12-06T06:46:11.865Z,100250.84
2022-12-06T06:48:41.374Z,100250.50
2022-12-06T06:51:12.409Z,100247.31
2022-12-06T06:53:41.000Z,100255.28
2022-12-06T06:56:09.958Z,100256.28
2022-12-06T06:58:38.524Z,100264.41
2022-12-06T07:01:08.955Z,100259.50
2022-12-06T07:03:37.092Z,100261.44
2022-12-06T07:06:09.307Z,100262.72
2022-12-06T07:08:39.634Z,100263.06
2022-12-06T07:11:07.771Z,100264.63
2022-12-06T07:13:37.984Z,100258.47
2022-12-06T07:16:08.171Z,100258.47
2022-12-06T07:18:36.334Z,100255.94
2022-12-06T07:21:06.027Z,100257.06
2022-12-06T07:23:35.593Z,100257.34
2022-12-06T07:26:08.045Z,100242.91
2022-12-06T07:28:37.246Z,100244.97
2022-12-06T07:31:12.881Z,100241.16
2022-12-06T07:33:41.471Z,100240.22
2022-12-06T07:36:12.869Z,100246.41
2022-12-06T07:38:42.214Z,100244.34
2022-12-06T07:41:31.219Z,100253.56
2022-12-06T07:44:17.722Z,100244.34
2022-12-06T07:46:46.354Z,100239.41
2022-12-06T07:49:15.793Z,100243.09
2022-12-06T07:51:43.987Z,100243.88
2022-12-06T07:54:12.138Z,100242.63
2022-12-06T07:56:42.246Z,100241.50
2022-12-06T07:59:10.640Z,100240.22
2022-12-06T08:01:38.793Z,100236.75
2022-12-06T08:04:07.942Z,100238.47
2022-12-06T08:06:36.521Z,100236.22
2022-12-06T08:09:05.178Z,100236.44
2022-12-06T08:11:33.333Z,100242.31
2022-12-06T08:14:03.027Z,100236.91
2022-12-06T08:16:31.080Z,100237.59
2022-12-06T08:18:59.296Z,100238.66
2022-12-06T08:21:27.406Z,100241.34
2022-12-06T08:23:56.755Z,100230.13
2022-12-06T08:26:25.281Z,100235.28
2022-12-06T08:28:53.672Z,100229.66
2022-12-06T08:31:25.202Z,100222.81
2022-12-06T08:33:53.489Z,100227.25
2022-12-06T08:36:23.684Z,100217.34
2022-12-06T08:38:52.488Z,100212.13
2022-12-06T08:41:38.954Z,100210.00
2022-12-06T08:44:07.663Z,100211.19
2022-12-06T08:46:37.321Z,100209.13
2022-12-06T08:49:06.160Z,100201.91
2022-12-06T08:51:36.223Z,100201.50
2022-12-06T08:54:06.172Z,100199.72
2022-12-06T08:56:34.408Z,100183.88
2022-12-06T08:59:02.704Z,100194.91
2022-12-06T09:01:37.407Z,100186.41
2022-12-06T09:04:09.107Z,100188.88
2022-12-06T09:06:40.017Z,100183.13
2022-12-06T09:09:09.979Z,100180.22
2022-12-06T09:11:39.144Z,100184.94
2022-12-06T09:14:09.321Z,100174.72
2022-12-06T09:16:37.915Z,100173.78
2022-12-06T09:19:07.317Z,100180.25
2022-12-06T09:21:35.340Z,100171.53
2022-12-06T09:24:03.465Z,100166.31
2022-12-06T09:26:31.543Z,100157.66
2022-12-06T09:29:00.368Z,100162.81
2022-12-06T09:31:28.498Z,100156.28
2022-12-06T09:33:56.927Z,100154.72
2022-12-06T09:36:29.160Z,100153.63
2022-12-06T09:39:00.897Z,100156.41
2022-12-06T09:42:11.650Z,100148.16
2022-12-06T09:45:13.338Z,100144.78
2022-12-06T09:47:59.252Z,100150.72
2022-12-06T09:50:40.764Z,100139.81
2022-12-06T09:53:21.242Z,100131.63
2022-12-06T09:55:59.389Z,100129.78
2022-12-06T09:58:41.712Z,100123.06
2022-12-06T10:01:19.911Z,100120.03
2022-12-06T10:04:27.951Z,100116.69
2022-12-06T10:07:05.470Z,100119.19
2022-12-06T10:09:47.795Z,100110.06
2022-12-06T10:12:28.779Z,100108.16
2022-12-06T10:15:14.448Z,100094.72
2022-12-06T10:17:52.669Z,100088.34
2022-12-06T10:20:31.113Z,100075.09
2022-12-06T10:23:12.657Z,100081.44
2022-12-06T10:25:48.071Z,100079.72
2022-12-06T10:28:25.559Z,100067.84
2022-12-06T10:31:03.088Z,100060.72
2022-12-06T10:33:39.780Z,100068.97
2022-12-06T10:36:11.155Z,100053.88
2022-12-06T10:38:44.843Z,100057.19
2022-12-06T10:41:21.319Z,100048.38
2022-12-06T10:43:55.642Z,100041.25
2022-12-06T10:46:49.274Z,100041.53
2022-12-06T10:49:26.318Z,100037.19
2022-12-06T10:52:00.091Z,100025.84
2022-12-06T10:54:34.519Z,100025.19
2022-12-06T10:57:08.685Z,100020.66
2022-12-06T10:59:42.396Z,100015.47
2022-12-06T11:02:23.202Z,100018.00
2022-12-06T11:04:54.349Z,100022.28
2022-12-06T11:07:26.718Z,100021.13
2022-12-06T11:09:57.683Z,100019.53
2022-12-06T11:12:32.738Z,100012.56
2022-12-06T11:15:08.466Z,100012.88
2022-12-06T11:17:43.478Z,100006.69
2022-12-06T11:20:24.014Z,100000.03
2022-12-06T11:23:06.097Z,99990.91
2022-12-06T11:25:43.496Z,99991.59
2022-12-06T11:28:29.504Z,99982.78
2022-12-06T11:30:58.727Z,99992.09
2022-12-06T11:33:32.115Z,99982.34
2022-12-06T11:36:03.777Z,99979.28
2022-12-06T11:38:32.566Z,99980.41
2022-12-06T11:41:01.023Z,99979.28
2022-12-06T11:43:35.411Z,99979.84
2022-12-06T11:46:05.471Z,99983.88
2022-12-06T11:48:36.898Z,99977.47
2022-12-06T11:51:05.284Z,99972.88
2022-12-06T11:53:38.170Z,99976.34
2022-12-06T11:56:14.556Z,99970.94
2022-12-06T11:58:52.249Z,99972.63
2022-12-06T12:01:20.334Z,99979.84
2022-12-06T12:03:48.840Z,99971.31
2022-12-06T12:06:21.377Z,99974.66
2022-12-06T12:08:59.674Z,99967.69
2022-12-06T12:11:30.730Z,99962.97
2022-12-06T12:14:04.929Z,99961.69
2022-12-06T12:16:37.260Z,99957.19
2022-12-06T12:19:25.281Z,99948.13
2022-12-06T12:21:55.480Z,99943.41
2022-12-06T12:27:45.149Z,99931.03
2022-12-06T12:30:36.990Z,99938.59
2022-12-06T12:33:21.136Z,99933.31
2022-12-06T12:35:55.600Z,99928.78
2022-12-06T12:38:38.221Z,99932.06
2022-12-06T12:41:24.821Z,99923.06
2022-12-06T12:46:57.237Z,99926.34
2022-12-06T12:49:29.560Z,99920.34
2022-12-06T12:51:58.686Z,99918.44
2022-12-06T12:54:30.593Z,99915.03
2022-12-06T12:57:00.376Z,99920.22
2022-12-06T12:59:34.332Z,99913.47
2022-12-06T13:02:13.176Z,99910.75
2022-12-06T13:04:45.999Z,99900.00
2022-12-06T13:07:22.271Z,99896.75
2022-12-06T13:09:58.131Z,99902.84
2022-12-06T13:12:32.430Z,99907.81
2022-12-06T13:15:05.295Z,99903.88
2022-12-06T13:17:38.801Z,99900.69
2022-12-06T13:20:24.024Z,99885.56
2022-12-06T13:22:55.629Z,99896.88
2022-12-06T13:25:24.043Z,99903.75
2022-12-06T13:27:55.154Z,99904.88
2022-12-06T13:30:25.650Z,99911.31
2022-12-06T13:32:59.610Z,99916.19
2022-12-06T13:35:32.203Z,99912.56
2022-12-06T13:38:01.883Z,99912.66
2022-12-06T13:40:46.532Z,99916.38
2022-12-06T13:43:57.628Z,99919.53
2022-12-06T13:46:34.436Z,99917.63
2022-12-06T13:49:06.740Z,99903.28
2022-12-06T13:51:47.555Z,99902.50
2022-12-06T13:54:36.529Z,99906.88
2022-12-06T13:57:22.955Z,99915.00
2022-12-06T13:59:51.166Z,99916.34
2022-12-06T14:02:52.728Z,99910.94
2022-12-06T14:06:06.006Z,99924.56
2022-12-06T14:08:42.696Z,99923.66
2022-12-06T14:11:22.308Z,99922.41
2022-12-06T14:14:01.295Z,99920.56
2022-12-06T14:16:35.413Z,99923.38
2022-12-06T14:19:13.738Z,99928.69
2022-12-06T14:21:51.298Z,99935.25
2022-12-06T14:24:34.939Z,99933.25
2022-12-06T14:27:08.499Z,99931.78
2022-12-06T14:29:36.780Z,99931.09
2022-12-06T14:32:04.971Z,99933.81
2022-12-06T14:34:35.252Z,99930.84
2022-12-06T14:37:20.211Z,99929.63
2022-12-06T14:39:53.532Z,99923.84
2022-12-06T14:42:40.661Z,99932.63
2022-12-06T14:45:15.660Z,99935.06
2022-12-06T14:47:45.282Z,99924.91
2022-12-06T14:50:28.371Z,99922.56
2022-12-06T14:53:03.721Z,99928.41
2022-12-06T14:55:34.157Z,99915.94
2022-12-06T14:58:04.257Z,99920.44
2022-12-06T15:00:37.576Z,99926.25
2022-12-06T15:03:23.890Z,99922.16
2022-12-06T15:06:13.187Z,99917.66
2022-12-06T15:08:44.246Z,99919.69
2022-12-06T15:11:45.370Z,99921.50
2022-12-06T15:14:15.907Z,99917.88
2022-12-06T15:16:46.604Z,99916.09
2022-12-06T15:19:18.659Z,99901.91
2022-12-06T15:21:46.884Z,99904.59
2022-12-06T15:24:21.662Z,99902.03
2022-12-06T15:26:49.939Z,99905.31
2022-12-06T15:29:18.707Z,99893.13
2022-12-06T15:31:50.606Z,99904.28
2022-12-06T15:34:25.903Z,99901.59
2022-12-06T15:37:15.239Z,99899.47
2022-12-06T15:39:45.635Z,99902.56
2022-12-06T15:42:20.682Z,99897.97
2022-12-06T15:44:52.004Z,99898.63
2022-12-06T15:47:20.701Z,99890.53
2022-12-06T15:49:51.026Z,99896.63
2022-12-06T15:52:24.475Z,99890.56
2022-12-06T15:54:53.955Z,99882.59
2022-12-06T15:57:22.028Z,99880.66
2022-12-06T15:59:50.222Z,99888.78
2022-12-06T16:02:19.622Z,99896.44
2022-12-06T16:04:51.095Z,99890.09
2022-12-06T16:07:19.764Z,99891.56
2022-12-06T16:09:48.517Z,99889.19
2022-12-06T16:12:18.182Z,99891.09
2022-12-06T16:14:46.379Z,99902.25
2022-12-06T16:17:14.451Z,99898.28
2022-12-06T16:20:08.936Z,99894.97
2022-12-06T16:22:54.353Z,99891.03
2022-12-06T16:25:22.507Z,99890.25
2022-12-06T16:27:52.249Z,99896.78
2022-12-06T16:30:32.756Z,99889.31
2022-12-06T16:33:07.153Z,99884.25
2022-12-06T16:35:36.142Z,99877.88
2022-12-06T16:38:04.259Z,99884.44
2022-12-06T16:40:34.059Z,99883.66
2022-12-06T16:43:03.720Z,99880.69
2022-12-06T16:45:33.287Z,99883.69
2022-12-06T16:48:01.468Z,99886.28
2022-12-06T16:50:29.777Z,99889.78
2022-12-06T16:52:57.888Z,99890.13
2022-12-06T16:55:26.071Z,99882.97
2022-12-06T16:57:54.331Z,99878.56
2022-12-06T17:00:24.465Z,99885.56
2022-12-06T17:02:52.676Z,99882.50
2022-12-06T17:05:23.901Z,99886.50
2022-12-06T17:07:52.530Z,99881.91
2022-12-06T17:10:21.751Z,99878.41
2022-12-06T17:12:50.949Z,99881.41
2022-12-06T17:15:21.144Z,99882.41
2022-12-06T17:17:50.981Z,99875.75
2022-12-06T17:20:19.875Z,99878.13
2022-12-06T17:22:48.362Z,99877.66
2022-12-06T17:25:17.507Z,99868.16
2022-12-06T17:27:46.036Z,99872.94
2022-12-06T17:30:18.027Z,99875.63
2022-12-06T17:32:48.037Z,99869.94
2022-12-06T17:35:17.712Z,99874.25
2022-12-06T17:37:45.781Z,99878.41
2022-12-06T17:40:14.924Z,99872.22
2022-12-06T17:43:01.088Z,99869.03
2022-12-06T17:45:29.205Z,99863.50
2022-12-06T17:47:57.452Z,99854.34
2022-12-06T17:50:27.048Z,99859.59
2022-12-06T17:52:55.159Z,99859.78
2022-12-06T17:55:23.225Z,99847.28
2022-12-06T17:57:51.276Z,99853.78
2022-12-06T18:00:19.983Z,99847.59
2022-12-06T18:02:48.761Z,99843.03
2022-12-06T18:05:17.441Z,99844.59
2022-12-06T18:07:47.092Z,99850.50
2022-12-06T18:10:15.217Z,99838.75
2022-12-06T18:12:43.832Z,99845.59
2022-12-06T18:15:33.229Z,99841.81
2022-12-06T18:18:01.369Z,99835.63
2022-12-06T18:20:29.505Z,99836.28
2022-12-06T18:22:58.967Z,99843.06
2022-12-06T18:25:26.961Z,99848.63
2022-12-06T18:27:54.989Z,99844.03
2022-12-06T18:30:23.097Z,99837.66
2022-12-06T18:32:51.382Z,99846.56
2022-12-06T18:35:19.552Z,99846.25
2022-12-06T18:37:47.709Z,99841.97
2022-12-06T18:40:17.250Z,99844.19
2022-12-06T18:42:45.413Z,99836.09
2022-12-06T18:45:13.565Z,99835.03
2022-12-06T18:47:41.806Z,99825.97
2022-12-06T18:50:10.655Z,99820.13
2022-12-06T18:52:38.793Z,99823.44
2022-12-06T18:55:08.027Z,99823.44
2022-12-06T18:57:39.702Z,99827.78
2022-12-06T19:00:09.068Z,99820.16
2022-12-06T19:02:37.278Z,99816.53
2022-12-06T19:05:06.177Z,99817.66
2022-12-06T19:07:35.081Z,99818.94
2022-12-06T19:10:03.557Z,99818.09
2022-12-06T19:12:31.931Z,99823.81
2022-12-06T19:15:01.432Z,99830.03
2022-12-06T19:17:29.748Z,99825.59
2022-12-06T19:19:57.960Z,99828.00
2022-12-06T19:22:26.329Z,99828.16
2022-12-06T19:24:54.436Z,99825.78
2022-12-06T19:27:22.583Z,99828.34
2022-12-06T19:29:50.807Z,99829.75
2022-12-06T19:32:20.324Z,99823.41
2022-12-06T19:34:48.547Z,99821.03
2022-12-06T19:37:17.531Z,99827.06
2022-12-06T19:39:46.026Z,99827.72
2022-12-06T19:42:31.746Z,99826.28
2022-12-06T19:44:59.847Z,99815.97
2022-12-06T19:47:29.469Z,99819.78
2022-12-06T19:49:58.732Z,99811.84
2022-12-06T19:52:30.822Z,99821.72
2022-12-06T19:54:59.477Z,99819.97
2022-12-06T19:57:27.767Z,99815.22
2022-12-06T19:59:56.569Z,99808.06
2022-12-06T20:02:24.888Z,99809.06
2022-12-06T20:04:54.440Z,99804.59
2022-12-06T20:07:22.619Z,99803.47
2022-12-06T20:09:50.768Z,99798.25
2022-12-06T20:12:18.928Z,99800.00
2022-12-06T20:14:52.514Z,99797.47
2022-12-06T20:17:23.790Z,99790.03
2022-12-06T20:19:52.079Z,99793.50
2022-12-06T20:22:22.835Z,99793.22
2022-12-06T20:24:51.082Z,99787.03
2022-12-06T20:27:39.245Z,99782.59
2022-12-06T20:30:08.522Z,99786.41
2022-12-06T20:32:36.591Z,99788.13
2022-12-06T20:35:06.090Z,99786.88
2022-12-06T20:37:35.702Z,99798.88
2022-12-06T20:40:06.277Z,99800.16
2022-12-06T20:42:34.933Z,99796.19
2022-12-06T20:45:03.083Z,99799.19
2022-12-06T20:47:31.182Z,99800.63
2022-12-06T20:49:59.595Z,99794.31
2022-12-06T20:52:27.995Z,99797.94
2022-12-06T20:54:57.422Z,99799.38
2022-12-06T20:57:25.599Z,99795.25
2022-12-06T20:59:53.813Z,99802.84
2022-12-06T21:02:22.016Z,99803.03
2022-12-06T21:04:50.345Z,99800.78
2022-12-06T21:07:19.160Z,99797.16
2022-12-06T21:09:47.920Z,99798.28
2022-12-06T21:12:20.261Z,99797.97
2022-12-06T21:14:48.436Z,99799.84
2022-12-06T21:17:16.738Z,99787.66
2022-12-06T21:19:45.308Z,99785.91
2022-12-06T21:22:15.134Z,99791.63
2022-12-06T21:24:44.087Z,99791.28
2022-12-06T21:27:12.306Z,99790.50
2022-12-06T21:29:42.695Z,99784.03
2022-12-06T21:32:10.770Z,99787.00
2022-12-06T21:34:46.040Z,99784.03
2022-12-06T21:37:14.685Z,99785.88
2022-12-06T21:39:46.472Z,99791.91
2022-12-06T21:42:15.899Z,99787.00
2022-12-06T21:44:45.467Z,99786.78
2022-12-06T21:47:13.706Z,99783.53
2022-12-06T21:49:42.454Z,99780.47
2022-12-06T21:52:10.566Z,99787.56
2022-12-06T21:54:38.741Z,99772.38
2022-12-06T21:57:06.922Z,99767.63
2022-12-06T21:59:35.061Z,99768.84
2022-12-06T22:02:04.657Z,99765.50
2022-12-06T22:04:32.855Z,99759.03
2022-12-06T22:07:01.128Z,99757.91
2022-12-06T22:09:31.327Z,99756.19
2022-12-06T22:11:59.499Z,99750.19
2022-12-06T22:14:27.706Z,99749.69
2022-12-06T22:16:55.889Z,99751.78
2022-12-06T22:19:25.481Z,99761.47
2022-12-06T22:21:56.080Z,99755.75
2022-12-06T22:24:24.473Z,99758.41
2022-12-06T22:26:52.523Z,99755.84
2022-12-06T22:29:20.554Z,99743.34
2022-12-06T22:31:48.684Z,99733.81
2022-12-06T22:34:16.683Z,99742.41
2022-12-06T22:36:46.300Z,99749.53
2022-12-06T22:39:14.329Z,99752.34
2022-12-06T22:41:42.696Z,99742.53
2022-12-06T22:44:13.027Z,99748.25
2022-12-06T22:46:41.525Z,99748.06
2022-12-06T22:49:12.612Z,99740.59
2022-12-06T22:51:45.923Z,99733.78
2022-12-06T22:54:15.400Z,99737.59
2022-12-06T22:56:48.466Z,99733.16
2022-12-06T22:59:18.068Z,99731.84
2022-12-06T23:01:46.316Z,99729.66
2022-12-06T23:04:14.543Z,99730.31
2022-12-06T23:06:42.751Z,99722.56
2022-12-06T23:09:16.821Z,99716.03
2022-12-06T23:11:45.301Z,99705.88
2022-12-06T23:14:13.640Z,99714.56
2022-12-06T23:16:43.843Z,99709.78
2022-12-06T23:19:12.086Z,99702.03
2022-12-06T23:21:40.964Z,99707.25
2022-12-06T23:24:12.318Z,99707.25
2022-12-06T23:26:44.147Z,99702.00
2022-12-06T23:29:13.067Z,99703.59
2022-12-06T23:31:43.012Z,99711.66
2022-12-06T23:34:16.061Z,99701.56
2022-12-06T23:36:44.885Z,99708.81
2022-12-06T23:39:13.571Z,99706.41
2022-12-06T23:41:43.589Z,99705.75
2022-12-06T23:44:13.751Z,99704.94
2022-12-06T23:46:43.924Z,99697.03
2022-12-06T23:49:17.640Z,99700.50
2022-12-06T23:51:46.576Z,99708.88
2022-12-06T23:54:15.964Z,99714.25
2022-12-06T23:56:46.800Z,99714.56
2022-12-06T23:59:16.339Z,99712.91
